sensor_id;sensor_type;location;lat;lon;timestamp;P1;durP1;ratioP1;P2;durP2;ratioP2
64714;SDS011;51144;53.002;6.506;2023-04-24T00:01:24;0.55;;;0.20;;
64714;SDS011;51144;53.002;6.506;2023-04-24T00:03:49;0.60;;;0.20;;
64714;SDS011;51144;53.002;6.506;2023-04-24T00:06:15;0.40;;;0.20;;
64714;SDS011;51144;53.002;6.506;2023-04-24T00:08:42;0.68;;;0.30;;
64714;SDS011;51144;53.002;6.506;2023-04-24T00:11:07;0.38;;;0.10;;
64714;SDS011;51144;53.002;6.506;2023-04-24T00:13:34;1.23;;;0.40;;
64714;SDS011;51144;53.002;6.506;2023-04-24T00:16:00;0.40;;;0.10;;
64714;SDS011;51144;53.002;6.506;2023-04-24T00:18:26;0.32;;;0.10;;
64714;SDS011;51144;53.002;6.506;2023-04-24T00:20:51;1.95;;;0.10;;
64714;SDS011;51144;53.002;6.506;2023-04-24T00:23:17;0.28;;;0.10;;
64714;SDS011;51144;53.002;6.506;2023-04-24T00:25:43;1.42;;;0.20;;
64714;SDS011;51144;53.002;6.506;2023-04-24T00:28:08;1.02;;;0.20;;
64714;SDS011;51144;53.002;6.506;2023-04-24T00:30:34;1.25;;;0.20;;
64714;SDS011;51144;53.002;6.506;2023-04-24T00:33:00;0.45;;;0.15;;
64714;SDS011;51144;53.002;6.506;2023-04-24T00:35:25;0.98;;;0.17;;
64714;SDS011;51144;53.002;6.506;2023-04-24T00:37:51;0.60;;;0.10;;
64714;SDS011;51144;53.002;6.506;2023-04-24T00:40:17;0.68;;;0.10;;
64714;SDS011;51144;53.002;6.506;2023-04-24T00:42:43;0.55;;;0.13;;
64714;SDS011;51144;53.002;6.506;2023-04-24T00:45:09;0.28;;;0.10;;
64714;SDS011;51144;53.002;6.506;2023-04-24T00:47:35;0.93;;;0.17;;
64714;SDS011;51144;53.002;6.506;2023-04-24T00:50:04;0.47;;;0.10;;
64714;SDS011;51144;53.002;6.506;2023-04-24T00:52:30;0.70;;;0.10;;
64714;SDS011;51144;53.002;6.506;2023-04-24T00:54:57;1.15;;;0.20;;
64714;SDS011;51144;53.002;6.506;2023-04-24T00:57:23;0.30;;;0.20;;
64714;SDS011;51144;53.002;6.506;2023-04-24T00:59:49;1.10;;;0.20;;
64714;SDS011;51144;53.002;6.506;2023-04-24T01:02:16;0.68;;;0.17;;
64714;SDS011;51144;53.002;6.506;2023-04-24T01:04:42;0.55;;;0.20;;
64714;SDS011;51144;53.002;6.506;2023-04-24T01:07:08;0.50;;;0.20;;
64714;SDS011;51144;53.002;6.506;2023-04-24T01:09:36;0.93;;;0.20;;
64714;SDS011;51144;53.002;6.506;2023-04-24T01:12:04;0.68;;;0.25;;
64714;SDS011;51144;53.002;6.506;2023-04-24T01:14:30;0.40;;;0.30;;
64714;SDS011;51144;53.002;6.506;2023-04-24T01:16:56;0.40;;;0.30;;
64714;SDS011;51144;53.002;6.506;2023-04-24T01:19:22;0.60;;;0.35;;
64714;SDS011;51144;53.002;6.506;2023-04-24T01:21:48;0.95;;;0.47;;
64714;SDS011;51144;53.002;6.506;2023-04-24T01:24:18;1.08;;;0.50;;
64714;SDS011;51144;53.002;6.506;2023-04-24T01:26:44;0.52;;;0.32;;
64714;SDS011;51144;53.002;6.506;2023-04-24T01:29:11;3.10;;;1.17;;
64714;SDS011;51144;53.002;6.506;2023-04-24T01:31:37;1.58;;;0.60;;
64714;SDS011;51144;53.002;6.506;2023-04-24T01:34:04;0.68;;;0.60;;
64714;SDS011;51144;53.002;6.506;2023-04-24T01:36:30;1.30;;;0.95;;
64714;SDS011;51144;53.002;6.506;2023-04-24T01:38:58;0.93;;;0.82;;
64714;SDS011;51144;53.002;6.506;2023-04-24T01:41:23;1.27;;;1.17;;
64714;SDS011;51144;53.002;6.506;2023-04-24T01:43:50;2.45;;;1.23;;
64714;SDS011;51144;53.002;6.506;2023-04-24T01:46:16;1.88;;;1.70;;
64714;SDS011;51144;53.002;6.506;2023-04-24T01:48:41;3.08;;;1.85;;
64714;SDS011;51144;53.002;6.506;2023-04-24T01:51:07;2.78;;;2.55;;
64714;SDS011;51144;53.002;6.506;2023-04-24T01:53:33;2.80;;;2.70;;
64714;SDS011;51144;53.002;6.506;2023-04-24T01:55:58;2.22;;;2.13;;
64714;SDS011;51144;53.002;6.506;2023-04-24T01:58:24;3.35;;;3.15;;
64714;SDS011;51144;53.002;6.506;2023-04-24T02:00:51;4.82;;;3.38;;
64714;SDS011;51144;53.002;6.506;2023-04-24T02:03:17;3.83;;;3.13;;
64714;SDS011;51144;53.002;6.506;2023-04-24T02:05:45;3.75;;;3.55;;
64714;SDS011;51144;53.002;6.506;2023-04-24T02:08:11;3.80;;;3.60;;
64714;SDS011;51144;53.002;6.506;2023-04-24T02:10:37;4.90;;;4.50;;
64714;SDS011;51144;53.002;6.506;2023-04-24T02:13:02;5.22;;;4.93;;
64714;SDS011;51144;53.002;6.506;2023-04-24T02:15:28;5.13;;;4.90;;
64714;SDS011;51144;53.002;6.506;2023-04-24T02:17:53;6.57;;;6.07;;
64714;SDS011;51144;53.002;6.506;2023-04-24T02:20:19;6.88;;;6.47;;
64714;SDS011;51144;53.002;6.506;2023-04-24T02:22:45;7.10;;;6.50;;
64714;SDS011;51144;53.002;6.506;2023-04-24T02:25:10;6.00;;;5.70;;
64714;SDS011;51144;53.002;6.506;2023-04-24T02:27:36;7.25;;;6.60;;
64714;SDS011;51144;53.002;6.506;2023-04-24T02:30:02;6.70;;;6.32;;
64714;SDS011;51144;53.002;6.506;2023-04-24T02:32:28;7.80;;;7.30;;
64714;SDS011;51144;53.002;6.506;2023-04-24T02:34:53;6.88;;;6.38;;
64714;SDS011;51144;53.002;6.506;2023-04-24T02:37:19;8.48;;;7.85;;
64714;SDS011;51144;53.002;6.506;2023-04-24T02:39:45;7.75;;;7.25;;
64714;SDS011;51144;53.002;6.506;2023-04-24T02:42:10;7.35;;;6.85;;
64714;SDS011;51144;53.002;6.506;2023-04-24T02:44:36;7.78;;;7.15;;
64714;SDS011;51144;53.002;6.506;2023-04-24T02:47:01;8.52;;;6.78;;
64714;SDS011;51144;53.002;6.506;2023-04-24T02:49:27;6.13;;;5.68;;
64714;SDS011;51144;53.002;6.506;2023-04-24T02:51:53;6.40;;;5.90;;
64714;SDS011;51144;53.002;6.506;2023-04-24T02:54:18;5.70;;;5.30;;
64714;SDS011;51144;53.002;6.506;2023-04-24T02:56:44;5.35;;;4.95;;
64714;SDS011;51144;53.002;6.506;2023-04-24T02:59:10;5.57;;;5.18;;
64714;SDS011;51144;53.002;6.506;2023-04-24T03:01:35;7.15;;;6.35;;
64714;SDS011;51144;53.002;6.506;2023-04-24T03:04:01;5.93;;;5.53;;
64714;SDS011;51144;53.002;6.506;2023-04-24T03:06:27;6.22;;;5.70;;
64714;SDS011;51144;53.002;6.506;2023-04-24T03:08:53;6.65;;;6.22;;
64714;SDS011;51144;53.002;6.506;2023-04-24T03:11:19;5.10;;;4.80;;
64714;SDS011;51144;53.002;6.506;2023-04-24T03:13:45;4.60;;;4.30;;
64714;SDS011;51144;53.002;6.506;2023-04-24T03:16:10;4.80;;;4.50;;
64714;SDS011;51144;53.002;6.506;2023-04-24T03:18:36;4.68;;;4.28;;
64714;SDS011;51144;53.002;6.506;2023-04-24T03:21:02;3.67;;;3.38;;
64714;SDS011;51144;53.002;6.506;2023-04-24T03:23:28;4.53;;;4.28;;
64714;SDS011;51144;53.002;6.506;2023-04-24T03:25:54;3.75;;;3.45;;
64714;SDS011;51144;53.002;6.506;2023-04-24T03:28:20;3.45;;;3.25;;
64714;SDS011;51144;53.002;6.506;2023-04-24T03:30:45;3.65;;;3.45;;
64714;SDS011;51144;53.002;6.506;2023-04-24T03:33:11;3.70;;;3.40;;
64714;SDS011;51144;53.002;6.506;2023-04-24T03:35:37;3.83;;;3.30;;
64714;SDS011;51144;53.002;6.506;2023-04-24T03:38:03;13.32;;;3.75;;
64714;SDS011;51144;53.002;6.506;2023-04-24T03:40:29;2.90;;;2.70;;
64714;SDS011;51144;53.002;6.506;2023-04-24T03:42:55;3.85;;;3.55;;
64714;SDS011;51144;53.002;6.506;2023-04-24T03:45:21;4.53;;;2.63;;
64714;SDS011;51144;53.002;6.506;2023-04-24T03:47:46;3.50;;;3.30;;
64714;SDS011;51144;53.002;6.506;2023-04-24T03:50:12;2.20;;;2.10;;
64714;SDS011;51144;53.002;6.506;2023-04-24T03:52:38;3.05;;;2.65;;
64714;SDS011;51144;53.002;6.506;2023-04-24T03:55:03;2.65;;;2.00;;
64714;SDS011;51144;53.002;6.506;2023-04-24T03:57:29;2.28;;;2.08;;
64714;SDS011;51144;53.002;6.506;2023-04-24T03:59:55;2.03;;;1.92;;
64714;SDS011;51144;53.002;6.506;2023-04-24T04:02:20;2.20;;;2.10;;
64714;SDS011;51144;53.002;6.506;2023-04-24T04:04:46;2.00;;;1.80;;
64714;SDS011;51144;53.002;6.506;2023-04-24T04:07:12;2.28;;;1.95;;
64714;SDS011;51144;53.002;6.506;2023-04-24T04:09:38;2.42;;;2.22;;
64714;SDS011;51144;53.002;6.506;2023-04-24T04:12:03;4.00;;;2.80;;
64714;SDS011;51144;53.002;6.506;2023-04-24T04:14:29;3.03;;;2.75;;
64714;SDS011;51144;53.002;6.506;2023-04-24T04:16:54;2.95;;;2.75;;
64714;SDS011;51144;53.002;6.506;2023-04-24T04:19:20;3.63;;;3.28;;
64714;SDS011;51144;53.002;6.506;2023-04-24T04:21:46;3.00;;;2.80;;
64714;SDS011;51144;53.002;6.506;2023-04-24T04:24:17;2.95;;;2.78;;
64714;SDS011;51144;53.002;6.506;2023-04-24T04:26:42;3.30;;;2.85;;
64714;SDS011;51144;53.002;6.506;2023-04-24T04:29:11;2.60;;;2.30;;
64714;SDS011;51144;53.002;6.506;2023-04-24T04:31:37;2.53;;;2.33;;
64714;SDS011;51144;53.002;6.506;2023-04-24T04:34:03;2.95;;;2.50;;
64714;SDS011;51144;53.002;6.506;2023-04-24T04:36:29;2.50;;;2.30;;
64714;SDS011;51144;53.002;6.506;2023-04-24T04:38:54;1.83;;;1.73;;
64714;SDS011;51144;53.002;6.506;2023-04-24T04:41:21;1.88;;;1.77;;
64714;SDS011;51144;53.002;6.506;2023-04-24T04:43:47;2.20;;;1.85;;
64714;SDS011;51144;53.002;6.506;2023-04-24T04:46:13;2.15;;;1.70;;
64714;SDS011;51144;53.002;6.506;2023-04-24T04:48:39;1.42;;;0.95;;
64714;SDS011;51144;53.002;6.506;2023-04-24T04:51:05;1.00;;;0.77;;
64714;SDS011;51144;53.002;6.506;2023-04-24T04:53:31;0.90;;;0.60;;
64714;SDS011;51144;53.002;6.506;2023-04-24T04:55:56;0.90;;;0.47;;
64714;SDS011;51144;53.002;6.506;2023-04-24T04:58:22;2.25;;;0.35;;
64714;SDS011;51144;53.002;6.506;2023-04-24T05:00:48;0.52;;;0.30;;
64714;SDS011;51144;53.002;6.506;2023-04-24T05:03:14;0.82;;;0.30;;
64714;SDS011;51144;53.002;6.506;2023-04-24T05:05:40;0.90;;;0.20;;
64714;SDS011;51144;53.002;6.506;2023-04-24T05:08:06;1.08;;;0.30;;
64714;SDS011;51144;53.002;6.506;2023-04-24T05:10:33;1.02;;;0.30;;
64714;SDS011;51144;53.002;6.506;2023-04-24T05:12:58;0.80;;;0.30;;
64714;SDS011;51144;53.002;6.506;2023-04-24T05:15:24;1.05;;;0.30;;
64714;SDS011;51144;53.002;6.506;2023-04-24T05:17:50;0.98;;;0.30;;
64714;SDS011;51144;53.002;6.506;2023-04-24T05:20:15;0.40;;;0.30;;
64714;SDS011;51144;53.002;6.506;2023-04-24T05:22:42;0.57;;;0.30;;
64714;SDS011;51144;53.002;6.506;2023-04-24T05:25:08;0.40;;;0.30;;
64714;SDS011;51144;53.002;6.506;2023-04-24T05:27:34;2.53;;;0.80;;
64714;SDS011;51144;53.002;6.506;2023-04-24T05:29:59;0.75;;;0.30;;
64714;SDS011;51144;53.002;6.506;2023-04-24T05:32:25;0.60;;;0.40;;
64714;SDS011;51144;53.002;6.506;2023-04-24T05:34:52;1.92;;;0.90;;
64714;SDS011;51144;53.002;6.506;2023-04-24T05:37:17;1.75;;;0.88;;
64714;SDS011;51144;53.002;6.506;2023-04-24T05:39:43;2.30;;;1.17;;
64714;SDS011;51144;53.002;6.506;2023-04-24T05:42:08;2.78;;;1.40;;
64714;SDS011;51144;53.002;6.506;2023-04-24T05:44:34;1.88;;;1.25;;
64714;SDS011;51144;53.002;6.506;2023-04-24T05:47:00;2.33;;;1.27;;
64714;SDS011;51144;53.002;6.506;2023-04-24T05:49:26;1.38;;;0.77;;
64714;SDS011;51144;53.002;6.506;2023-04-24T05:51:52;2.08;;;1.25;;
64714;SDS011;51144;53.002;6.506;2023-04-24T05:54:18;3.15;;;1.92;;
64714;SDS011;51144;53.002;6.506;2023-04-24T05:56:43;3.55;;;2.42;;
64714;SDS011;51144;53.002;6.506;2023-04-24T05:59:09;5.38;;;3.25;;
64714;SDS011;51144;53.002;6.506;2023-04-24T06:01:35;8.13;;;3.33;;
64714;SDS011;51144;53.002;6.506;2023-04-24T06:04:01;7.97;;;3.58;;
64714;SDS011;51144;53.002;6.506;2023-04-24T06:06:27;8.40;;;4.00;;
64714;SDS011;51144;53.002;6.506;2023-04-24T06:08:53;3.22;;;2.47;;
64714;SDS011;51144;53.002;6.506;2023-04-24T06:11:19;2.55;;;2.05;;
64714;SDS011;51144;53.002;6.506;2023-04-24T06:13:45;2.35;;;1.88;;
64714;SDS011;51144;53.002;6.506;2023-04-24T06:16:11;2.53;;;1.60;;
64714;SDS011;51144;53.002;6.506;2023-04-24T06:18:36;2.72;;;1.33;;
64714;SDS011;51144;53.002;6.506;2023-04-24T06:21:02;3.28;;;1.60;;
64714;SDS011;51144;53.002;6.506;2023-04-24T06:23:29;2.92;;;2.08;;
64714;SDS011;51144;53.002;6.506;2023-04-24T06:25:57;3.53;;;1.92;;
64714;SDS011;51144;53.002;6.506;2023-04-24T06:28:23;3.63;;;2.50;;
64714;SDS011;51144;53.002;6.506;2023-04-24T06:30:48;6.30;;;2.78;;
64714;SDS011;51144;53.002;6.506;2023-04-24T06:33:15;5.32;;;3.45;;
64714;SDS011;51144;53.002;6.506;2023-04-24T06:35:41;6.68;;;3.50;;
64714;SDS011;51144;53.002;6.506;2023-04-24T06:38:07;7.47;;;3.72;;
64714;SDS011;51144;53.002;6.506;2023-04-24T06:40:33;5.00;;;3.97;;
64714;SDS011;51144;53.002;6.506;2023-04-24T06:42:58;4.00;;;3.45;;
64714;SDS011;51144;53.002;6.506;2023-04-24T06:45:25;11.63;;;4.97;;
64714;SDS011;51144;53.002;6.506;2023-04-24T06:47:50;7.35;;;5.40;;
64714;SDS011;51144;53.002;6.506;2023-04-24T06:50:16;10.55;;;5.75;;
64714;SDS011;51144;53.002;6.506;2023-04-24T06:52:42;12.55;;;6.10;;
64714;SDS011;51144;53.002;6.506;2023-04-24T06:55:09;8.82;;;6.18;;
64714;SDS011;51144;53.002;6.506;2023-04-24T06:57:36;12.05;;;6.72;;
64714;SDS011;51144;53.002;6.506;2023-04-24T07:00:02;15.15;;;6.70;;
64714;SDS011;51144;53.002;6.506;2023-04-24T07:02:30;11.65;;;7.30;;
64714;SDS011;51144;53.002;6.506;2023-04-24T07:04:55;10.30;;;6.60;;
64714;SDS011;51144;53.002;6.506;2023-04-24T07:07:21;13.07;;;7.72;;
64714;SDS011;51144;53.002;6.506;2023-04-24T07:09:49;8.88;;;6.18;;
64714;SDS011;51144;53.002;6.506;2023-04-24T07:12:15;10.65;;;5.82;;
64714;SDS011;51144;53.002;6.506;2023-04-24T07:14:42;11.65;;;6.82;;
64714;SDS011;51144;53.002;6.506;2023-04-24T07:17:07;17.30;;;8.32;;
64714;SDS011;51144;53.002;6.506;2023-04-24T07:19:33;7.85;;;5.72;;
64714;SDS011;51144;53.002;6.506;2023-04-24T07:22:02;4.57;;;3.53;;
64714;SDS011;51144;53.002;6.506;2023-04-24T07:24:28;8.70;;;3.88;;
64714;SDS011;51144;53.002;6.506;2023-04-24T07:26:54;6.22;;;4.30;;
64714;SDS011;51144;53.002;6.506;2023-04-24T07:29:20;4.35;;;3.28;;
64714;SDS011;51144;53.002;6.506;2023-04-24T07:31:46;5.82;;;2.88;;
64714;SDS011;51144;53.002;6.506;2023-04-24T07:34:12;6.82;;;3.35;;
64714;SDS011;51144;53.002;6.506;2023-04-24T07:36:37;6.05;;;2.30;;
64714;SDS011;51144;53.002;6.506;2023-04-24T07:39:04;5.25;;;1.92;;
64714;SDS011;51144;53.002;6.506;2023-04-24T07:41:30;2.72;;;1.30;;
64714;SDS011;51144;53.002;6.506;2023-04-24T07:43:56;8.63;;;2.33;;
64714;SDS011;51144;53.002;6.506;2023-04-24T07:46:22;7.95;;;2.65;;
64714;SDS011;51144;53.002;6.506;2023-04-24T07:48:48;5.80;;;2.60;;
64714;SDS011;51144;53.002;6.506;2023-04-24T07:51:14;10.30;;;2.50;;
64714;SDS011;51144;53.002;6.506;2023-04-24T07:53:40;6.40;;;2.40;;
64714;SDS011;51144;53.002;6.506;2023-04-24T07:56:06;5.47;;;1.73;;
64714;SDS011;51144;53.002;6.506;2023-04-24T07:58:32;3.97;;;1.88;;
64714;SDS011;51144;53.002;6.506;2023-04-24T08:00:58;6.18;;;1.50;;
64714;SDS011;51144;53.002;6.506;2023-04-24T08:03:23;4.63;;;1.95;;
64714;SDS011;51144;53.002;6.506;2023-04-24T08:05:49;8.27;;;2.30;;
64714;SDS011;51144;53.002;6.506;2023-04-24T08:08:16;8.20;;;2.63;;
64714;SDS011;51144;53.002;6.506;2023-04-24T08:10:42;11.32;;;6.47;;
64714;SDS011;51144;53.002;6.506;2023-04-24T08:13:07;16.50;;;8.93;;
64714;SDS011;51144;53.002;6.506;2023-04-24T08:15:33;18.27;;;10.57;;
64714;SDS011;51144;53.002;6.506;2023-04-24T08:17:59;21.42;;;11.13;;
64714;SDS011;51144;53.002;6.506;2023-04-24T08:20:25;22.30;;;12.80;;
64714;SDS011;51144;53.002;6.506;2023-04-24T08:22:51;25.25;;;12.55;;
64714;SDS011;51144;53.002;6.506;2023-04-24T08:25:17;25.67;;;13.30;;
64714;SDS011;51144;53.002;6.506;2023-04-24T08:27:44;23.88;;;14.93;;
64714;SDS011;51144;53.002;6.506;2023-04-24T08:30:10;26.10;;;14.10;;
64714;SDS011;51144;53.002;6.506;2023-04-24T08:32:36;23.85;;;14.38;;
64714;SDS011;51144;53.002;6.506;2023-04-24T08:35:02;26.10;;;13.65;;
64714;SDS011;51144;53.002;6.506;2023-04-24T08:37:28;24.17;;;12.85;;
64714;SDS011;51144;53.002;6.506;2023-04-24T08:39:54;21.13;;;13.63;;
64714;SDS011;51144;53.002;6.506;2023-04-24T08:42:20;20.83;;;14.20;;
64714;SDS011;51144;53.002;6.506;2023-04-24T08:44:46;23.38;;;15.50;;
64714;SDS011;51144;53.002;6.506;2023-04-24T08:47:14;23.67;;;15.52;;
64714;SDS011;51144;53.002;6.506;2023-04-24T08:49:40;22.50;;;16.25;;
64714;SDS011;51144;53.002;6.506;2023-04-24T08:52:07;28.50;;;17.23;;
64714;SDS011;51144;53.002;6.506;2023-04-24T08:54:34;28.55;;;16.73;;
64714;SDS011;51144;53.002;6.506;2023-04-24T08:57:00;30.10;;;18.80;;
64714;SDS011;51144;53.002;6.506;2023-04-24T08:59:28;34.28;;;18.10;;
64714;SDS011;51144;53.002;6.506;2023-04-24T09:01:55;24.65;;;16.70;;
64714;SDS011;51144;53.002;6.506;2023-04-24T09:04:21;27.67;;;19.15;;
64714;SDS011;51144;53.002;6.506;2023-04-24T09:06:49;31.38;;;19.63;;
64714;SDS011;51144;53.002;6.506;2023-04-24T09:09:23;32.97;;;22.88;;
64714;SDS011;51144;53.002;6.506;2023-04-24T09:11:49;34.13;;;20.65;;
64714;SDS011;51144;53.002;6.506;2023-04-24T09:14:16;34.38;;;21.15;;
64714;SDS011;51144;53.002;6.506;2023-04-24T09:16:42;29.23;;;19.65;;
64714;SDS011;51144;53.002;6.506;2023-04-24T09:19:08;30.45;;;18.90;;
64714;SDS011;51144;53.002;6.506;2023-04-24T09:21:34;26.58;;;18.80;;
64714;SDS011;51144;53.002;6.506;2023-04-24T09:24:01;25.42;;;16.23;;
64714;SDS011;51144;53.002;6.506;2023-04-24T09:26:34;21.33;;;16.23;;
64714;SDS011;51144;53.002;6.506;2023-04-24T09:29:01;19.48;;;14.65;;
64714;SDS011;51144;53.002;6.506;2023-04-24T09:31:29;18.23;;;12.75;;
64714;SDS011;51144;53.002;6.506;2023-04-24T09:33:55;24.08;;;14.68;;
64714;SDS011;51144;53.002;6.506;2023-04-24T09:36:31;27.65;;;15.35;;
64714;SDS011;51144;53.002;6.506;2023-04-24T09:38:59;17.25;;;11.32;;
64714;SDS011;51144;53.002;6.506;2023-04-24T09:41:26;17.60;;;10.00;;
64714;SDS011;51144;53.002;6.506;2023-04-24T09:43:56;20.85;;;11.85;;
64714;SDS011;51144;53.002;6.506;2023-04-24T09:46:29;18.85;;;11.07;;
64714;SDS011;51144;53.002;6.506;2023-04-24T09:48:56;13.02;;;10.48;;
64714;SDS011;51144;53.002;6.506;2023-04-24T09:51:35;15.50;;;9.85;;
64714;SDS011;51144;53.002;6.506;2023-04-24T09:54:02;18.15;;;9.23;;
64714;SDS011;51144;53.002;6.506;2023-04-24T09:56:30;33.03;;;11.27;;
64714;SDS011;51144;53.002;6.506;2023-04-24T09:59:07;15.82;;;8.90;;
64714;SDS011;51144;53.002;6.506;2023-04-24T10:01:33;21.75;;;8.48;;
64714;SDS011;51144;53.002;6.506;2023-04-24T10:03:59;15.68;;;8.10;;
64714;SDS011;51144;53.002;6.506;2023-04-24T10:06:32;18.90;;;7.53;;
64714;SDS011;51144;53.002;6.506;2023-04-24T10:08:58;11.30;;;5.85;;
64714;SDS011;51144;53.002;6.506;2023-04-24T10:11:28;15.52;;;6.93;;
64714;SDS011;51144;53.002;6.506;2023-04-24T10:13:54;14.68;;;4.78;;
64714;SDS011;51144;53.002;6.506;2023-04-24T10:16:21;12.50;;;3.83;;
64714;SDS011;51144;53.002;6.506;2023-04-24T10:18:48;7.63;;;3.78;;
64714;SDS011;51144;53.002;6.506;2023-04-24T10:21:17;10.00;;;3.90;;
64714;SDS011;51144;53.002;6.506;2023-04-24T10:23:42;15.60;;;3.30;;
64714;SDS011;51144;53.002;6.506;2023-04-24T10:26:10;8.98;;;3.03;;
64714;SDS011;51144;53.002;6.506;2023-04-24T10:28:43;13.90;;;3.33;;
64714;SDS011;51144;53.002;6.506;2023-04-24T10:31:10;10.38;;;2.70;;
64714;SDS011;51144;53.002;6.506;2023-04-24T10:33:38;12.00;;;3.40;;
64714;SDS011;51144;53.002;6.506;2023-04-24T10:36:06;9.88;;;2.20;;
64714;SDS011;51144;53.002;6.506;2023-04-24T10:38:34;11.75;;;2.55;;
64714;SDS011;51144;53.002;6.506;2023-04-24T10:41:11;10.55;;;2.13;;
64714;SDS011;51144;53.002;6.506;2023-04-24T10:43:44;10.70;;;1.77;;
64714;SDS011;51144;53.002;6.506;2023-04-24T10:46:10;9.75;;;2.13;;
64714;SDS011;51144;53.002;6.506;2023-04-24T10:48:44;12.33;;;2.67;;
64714;SDS011;51144;53.002;6.506;2023-04-24T10:51:24;9.57;;;2.28;;
64714;SDS011;51144;53.002;6.506;2023-04-24T10:57:25;6.55;;;1.55;;
64714;SDS011;51144;53.002;6.506;2023-04-24T10:59:48;11.93;;;2.33;;
64714;SDS011;51144;53.002;6.506;2023-04-24T11:02:16;12.35;;;1.73;;
64714;SDS011;51144;53.002;6.506;2023-04-24T11:04:42;11.80;;;1.80;;
64714;SDS011;51144;53.002;6.506;2023-04-24T11:07:08;8.05;;;1.25;;
64714;SDS011;51144;53.002;6.506;2023-04-24T11:09:35;14.25;;;1.65;;
64714;SDS011;51144;53.002;6.506;2023-04-24T11:12:05;8.20;;;1.15;;
64714;SDS011;51144;53.002;6.506;2023-04-24T11:17:31;6.32;;;0.90;;
64714;SDS011;51144;53.002;6.506;2023-04-24T11:20:06;8.57;;;1.17;;
64714;SDS011;51144;53.002;6.506;2023-04-24T11:22:34;8.57;;;0.73;;
64714;SDS011;51144;53.002;6.506;2023-04-24T11:25:01;9.32;;;1.10;;
64714;SDS011;51144;53.002;6.506;2023-04-24T11:27:31;6.00;;;0.85;;
64714;SDS011;51144;53.002;6.506;2023-04-24T11:30:04;9.75;;;1.55;;
64714;SDS011;51144;53.002;6.506;2023-04-24T11:35:06;6.93;;;0.88;;
64714;SDS011;51144;53.002;6.506;2023-04-24T11:37:39;12.57;;;2.00;;
64714;SDS011;51144;53.002;6.506;2023-04-24T11:40:07;6.05;;;1.23;;
64714;SDS011;51144;53.002;6.506;2023-04-24T11:42:35;11.85;;;1.48;;
64714;SDS011;51144;53.002;6.506;2023-04-24T11:45:06;8.52;;;1.00;;
64714;SDS011;51144;53.002;6.506;2023-04-24T11:47:53;8.60;;;0.88;;
64714;SDS011;51144;53.002;6.506;2023-04-24T11:50:21;6.20;;;0.80;;
64714;SDS011;51144;53.002;6.506;2023-04-24T11:52:50;7.05;;;0.63;;
64714;SDS011;51144;53.002;6.506;2023-04-24T11:57:43;9.77;;;0.93;;
64714;SDS011;51144;53.002;6.506;2023-04-24T12:00:15;8.20;;;0.90;;
64714;SDS011;51144;53.002;6.506;2023-04-24T12:02:42;6.22;;;0.88;;
64714;SDS011;51144;53.002;6.506;2023-04-24T12:05:08;7.43;;;0.80;;
64714;SDS011;51144;53.002;6.506;2023-04-24T12:07:40;5.50;;;1.15;;
64714;SDS011;51144;53.002;6.506;2023-04-24T12:10:11;10.18;;;0.50;;
64714;SDS011;51144;53.002;6.506;2023-04-24T12:12:37;6.35;;;0.77;;
64714;SDS011;51144;53.002;6.506;2023-04-24T12:15:06;5.75;;;0.60;;
64714;SDS011;51144;53.002;6.506;2023-04-24T12:17:33;4.50;;;0.68;;
64714;SDS011;51144;53.002;6.506;2023-04-24T12:20:01;2.75;;;0.50;;
64714;SDS011;51144;53.002;6.506;2023-04-24T12:22:44;5.60;;;0.60;;
64714;SDS011;51144;53.002;6.506;2023-04-24T12:25:24;6.28;;;0.55;;
64714;SDS011;51144;53.002;6.506;2023-04-24T12:27:52;3.20;;;0.35;;
64714;SDS011;51144;53.002;6.506;2023-04-24T12:30:34;4.00;;;0.68;;
64714;SDS011;51144;53.002;6.506;2023-04-24T12:33:04;2.50;;;0.30;;
64714;SDS011;51144;53.002;6.506;2023-04-24T12:35:31;4.28;;;0.60;;
64714;SDS011;51144;53.002;6.506;2023-04-24T12:38:13;6.05;;;0.60;;
64714;SDS011;51144;53.002;6.506;2023-04-24T12:40:41;6.05;;;0.40;;
64714;SDS011;51144;53.002;6.506;2023-04-24T12:43:16;4.22;;;0.50;;
64714;SDS011;51144;53.002;6.506;2023-04-24T12:45:43;4.97;;;0.30;;
64714;SDS011;51144;53.002;6.506;2023-04-24T12:48:12;5.20;;;0.30;;
64714;SDS011;51144;53.002;6.506;2023-04-24T12:50:41;4.43;;;0.30;;
64714;SDS011;51144;53.002;6.506;2023-04-24T12:53:08;5.72;;;0.55;;
64714;SDS011;51144;53.002;6.506;2023-04-24T12:55:37;7.15;;;0.43;;
64714;SDS011;51144;53.002;6.506;2023-04-24T12:58:02;5.25;;;0.43;;
64714;SDS011;51144;53.002;6.506;2023-04-24T13:00:28;8.75;;;0.70;;
64714;SDS011;51144;53.002;6.506;2023-04-24T13:02:54;4.55;;;0.30;;
64714;SDS011;51144;53.002;6.506;2023-04-24T13:05:20;8.20;;;0.60;;
64714;SDS011;51144;53.002;6.506;2023-04-24T13:07:46;6.35;;;0.30;;
64714;SDS011;51144;53.002;6.506;2023-04-24T13:10:11;5.93;;;0.43;;
64714;SDS011;51144;53.002;6.506;2023-04-24T13:12:38;9.77;;;0.88;;
64714;SDS011;51144;53.002;6.506;2023-04-24T13:15:04;4.38;;;0.35;;
64714;SDS011;51144;53.002;6.506;2023-04-24T13:17:30;4.70;;;0.30;;
64714;SDS011;51144;53.002;6.506;2023-04-24T13:19:56;8.05;;;0.50;;
64714;SDS011;51144;53.002;6.506;2023-04-24T13:22:22;4.40;;;0.35;;
64714;SDS011;51144;53.002;6.506;2023-04-24T13:24:47;5.68;;;0.52;;
64714;SDS011;51144;53.002;6.506;2023-04-24T13:27:14;4.03;;;0.52;;
64714;SDS011;51144;53.002;6.506;2023-04-24T13:29:40;6.75;;;0.43;;
64714;SDS011;51144;53.002;6.506;2023-04-24T13:32:07;3.22;;;0.43;;
64714;SDS011;51144;53.002;6.506;2023-04-24T13:34:33;5.88;;;0.30;;
64714;SDS011;51144;53.002;6.506;2023-04-24T13:36:59;3.83;;;0.20;;
64714;SDS011;51144;53.002;6.506;2023-04-24T13:39:25;6.95;;;0.55;;
64714;SDS011;51144;53.002;6.506;2023-04-24T13:41:51;4.25;;;0.10;;
64714;SDS011;51144;53.002;6.506;2023-04-24T13:44:18;2.25;;;0.15;;
64714;SDS011;51144;53.002;6.506;2023-04-24T13:46:46;3.28;;;0.40;;
64714;SDS011;51144;53.002;6.506;2023-04-24T13:49:12;3.17;;;0.20;;
64714;SDS011;51144;53.002;6.506;2023-04-24T13:51:40;3.25;;;0.22;;
64714;SDS011;51144;53.002;6.506;2023-04-24T13:54:06;3.83;;;0.20;;
64714;SDS011;51144;53.002;6.506;2023-04-24T13:56:32;1.65;;;0.10;;
64714;SDS011;51144;53.002;6.506;2023-04-24T13:58:58;2.33;;;0.17;;
64714;SDS011;51144;53.002;6.506;2023-04-24T14:01:23;5.75;;;0.65;;
64714;SDS011;51144;53.002;6.506;2023-04-24T14:03:50;3.95;;;0.20;;
64714;SDS011;51144;53.002;6.506;2023-04-24T14:06:16;4.10;;;0.20;;
64714;SDS011;51144;53.002;6.506;2023-04-24T14:08:45;4.25;;;0.43;;
64714;SDS011;51144;53.002;6.506;2023-04-24T14:11:11;6.80;;;0.50;;
64714;SDS011;51144;53.002;6.506;2023-04-24T14:13:38;4.78;;;0.50;;
64714;SDS011;51144;53.002;6.506;2023-04-24T14:16:05;8.70;;;0.40;;
64714;SDS011;51144;53.002;6.506;2023-04-24T14:18:31;7.43;;;1.23;;
64714;SDS011;51144;53.002;6.506;2023-04-24T14:20:57;8.32;;;1.10;;
64714;SDS011;51144;53.002;6.506;2023-04-24T14:23:23;6.53;;;0.65;;
64714;SDS011;51144;53.002;6.506;2023-04-24T14:25:49;7.95;;;0.57;;
64714;SDS011;51144;53.002;6.506;2023-04-24T14:28:17;4.70;;;0.47;;
64714;SDS011;51144;53.002;6.506;2023-04-24T14:30:44;7.07;;;0.90;;
64714;SDS011;51144;53.002;6.506;2023-04-24T14:33:09;20.13;;;2.47;;
64714;SDS011;51144;53.002;6.506;2023-04-24T14:35:36;8.73;;;0.80;;
64714;SDS011;51144;53.002;6.506;2023-04-24T14:38:02;10.50;;;1.38;;
64714;SDS011;51144;53.002;6.506;2023-04-24T14:40:27;9.75;;;1.15;;
64714;SDS011;51144;53.002;6.506;2023-04-24T14:42:53;10.68;;;1.90;;
64714;SDS011;51144;53.002;6.506;2023-04-24T14:45:19;9.20;;;0.93;;
64714;SDS011;51144;53.002;6.506;2023-04-24T14:47:44;13.85;;;1.75;;
64714;SDS011;51144;53.002;6.506;2023-04-24T14:50:10;17.33;;;1.83;;
64714;SDS011;51144;53.002;6.506;2023-04-24T14:52:37;7.72;;;1.08;;